Time;durP1;ratioP1;P1;durP2;ratioP2;P2;SDS_P1;SDS_P2;PMS_P1;PMS_P2;Temp;Humidity;BMP_temperature;BMP_pressure;BME280_temperature;BME280_humidity;BME280_pressure;Samples;Min_cycle;Max_cycle;Signal;HPM_P1;HPM_P2
2023/10/25 00:00:07;;;;;;;3.65;2.33;;;;;;;-145.87;100.00;54973.53;2091236;28;20053;-60
2023/10/25 00:01:08;;;;;;;3.42;2.70;;;;;;;-145.87;100.00;54973.53;2090951;28;20045;-61
2023/10/25 00:02:10;;;;;;;3.78;2.60;;;;;;;-145.87;100.00;54973.53;2091090;28;20409;-61
2023/10/25 00:03:12;;;;;;;3.55;2.85;;;;;;;-145.87;100.00;54973.53;2091002;28;20053;-61
2023/10/25 00:04:13;;;;;;;4.88;2.80;;;;;;;-145.87;100.00;54973.53;2090783;28;20041;-61
2023/10/25 00:05:14;;;;;;;4.53;2.88;;;;;;;-145.87;100.00;54973.53;2090904;28;20057;-62
2023/10/25 00:06:15;;;;;;;5.25;2.67;;;;;;;-145.87;100.00;54973.53;2090928;28;20500;-61
2023/10/25 00:07:18;;;;;;;5.80;2.95;;;;;;;-145.87;100.00;54973.53;2090409;28;20049;-61
2023/10/25 00:08:19;;;;;;;4.25;2.60;;;;;;;-145.87;100.00;54973.53;2091074;28;20057;-61
2023/10/25 00:09:20;;;;;;;3.17;2.83;;;;;;;-145.87;100.00;54973.53;2091076;28;20064;-62
2023/10/25 00:10:21;;;;;;;5.18;3.15;;;;;;;-145.87;100.00;54973.53;2090455;28;20505;-61
2023/10/25 00:11:23;;;;;;;4.25;3.13;;;;;;;-145.87;100.00;54973.53;2090203;28;20060;-61
2023/10/25 00:12:24;;;;;;;3.90;3.08;;;;;;;-145.87;100.00;54973.53;2091243;28;20057;-59
2023/10/25 00:13:25;;;;;;;4.03;3.08;;;;;;;-145.87;100.00;54973.53;2090814;28;20049;-60
2023/10/25 00:14:27;;;;;;;4.63;3.03;;;;;;;-145.87;100.00;54973.53;2090715;28;20052;-59
2023/10/25 00:15:28;;;;;;;5.90;3.28;;;;;;;-145.87;100.00;54973.53;2090774;28;20064;-59
2023/10/25 00:16:29;;;;;;;4.82;3.50;;;;;;;-145.87;100.00;54973.53;2090740;28;20060;-60
2023/10/25 00:17:30;;;;;;;5.35;3.67;;;;;;;-145.87;100.00;54973.53;2091328;28;20049;-59
2023/10/25 00:18:31;;;;;;;3.53;2.97;;;;;;;-145.87;100.00;54973.53;2090963;28;20043;-60
2023/10/25 00:19:32;;;;;;;5.85;3.53;;;;;;;-145.87;100.00;54973.53;2090822;28;20033;-60
2023/10/25 00:20:33;;;;;;;5.72;3.58;;;;;;;-145.87;100.00;54973.53;2090844;28;20111;-60
2023/10/25 00:21:34;;;;;;;5.72;3.58;;;;;;;-145.87;100.00;54973.53;2090824;28;20041;-59
2023/10/25 00:22:35;;;;;;;4.93;3.80;;;;;;;-145.87;100.00;54973.53;2090639;28;20037;-59
2023/10/25 00:23:37;;;;;;;5.03;3.72;;;;;;;-145.87;100.00;54973.53;2091506;28;20053;-59
2023/10/25 00:24:38;;;;;;;5.47;3.90;;;;;;;-145.87;100.00;54973.53;2090678;28;20055;-61
2023/10/25 00:25:39;;;;;;;5.25;3.88;;;;;;;-145.87;100.00;54973.53;2090373;28;20052;-61
2023/10/25 00:26:40;;;;;;;6.25;4.50;;;;;;;-145.87;100.00;54973.53;2090625;28;20037;-59
2023/10/25 00:27:41;;;;;;;10.70;4.55;;;;;;;-145.87;100.00;54973.53;2090887;28;20033;-61
2023/10/25 00:28:42;;;;;;;5.30;4.40;;;;;;;-145.87;100.00;54973.53;2090695;28;20507;-61
2023/10/25 00:29:43;;;;;;;6.22;4.88;;;;;;;-145.87;100.00;54973.53;2081868;28;20041;-61
2023/10/25 00:30:44;;;;;;;7.22;5.13;;;;;;;-145.87;100.00;54973.53;2081810;28;20421;-61
2023/10/25 00:31:46;;;;;;;8.98;5.18;;;;;;;-145.87;100.00;54973.53;2089879;28;20052;-62
2023/10/25 00:32:47;;;;;;;8.40;6.68;;;;;;;-145.87;100.00;54973.53;2089991;28;20041;-62
2023/10/25 00:33:48;;;;;;;6.35;5.68;;;;;;;-145.87;100.00;54973.53;2090674;28;20045;-62
2023/10/25 00:34:49;;;;;;;7.03;6.07;;;;;;;-145.87;100.00;54973.53;2081216;28;20053;-62
2023/10/25 00:35:50;;;;;;;8.40;6.28;;;;;;;-145.87;100.00;54973.53;2081807;28;20053;-62
2023/10/25 00:36:51;;;;;;;7.65;6.65;;;;;;;-145.87;100.00;54973.53;2090262;28;20516;-62
2023/10/25 00:37:52;;;;;;;9.50;6.30;;;;;;;-145.87;100.00;54973.53;2089731;28;20116;-61
2023/10/25 00:38:53;;;;;;;8.02;6.72;;;;;;;-145.87;100.00;54973.53;2090601;28;20049;-62
2023/10/25 00:39:56;;;;;;;8.90;6.82;;;;;;;-145.87;100.00;54973.53;2090901;28;20064;-62
2023/10/25 00:40:57;;;;;;;7.00;6.20;;;;;;;-145.87;100.00;54973.53;2090658;28;20051;-61
2023/10/25 00:41:59;;;;;;;8.40;6.53;;;;;;;-145.87;100.00;54973.53;2090166;28;20049;-61
2023/10/25 00:43:14;;;;;;;9.05;7.00;;;;;;;-145.87;100.00;54973.53;2090054;28;20512;-60
2023/10/25 00:44:15;;;;;;;8.98;7.57;;;;;;;-145.87;100.00;54973.53;2091900;28;20045;-60
2023/10/25 00:45:16;;;;;;;10.80;7.78;;;;;;;-145.87;100.00;54973.53;2090446;28;20059;-64
2023/10/25 00:46:21;;;;;;;10.32;7.93;;;;;;;-145.87;100.00;54973.53;2082736;28;20410;-65
2023/10/25 00:47:23;;;;;;;11.80;8.43;;;;;;;-145.87;100.00;54973.53;2082911;28;20037;-60
2023/10/25 00:48:24;;;;;;;8.55;7.63;;;;;;;-145.87;100.00;54973.53;2082748;28;20420;-68
2023/10/25 00:49:26;;;;;;;10.70;8.77;;;;;;;-145.87;100.00;54973.53;2083018;28;20060;-64
2023/10/25 00:50:27;;;;;;;13.80;8.60;;;;;;;-145.87;100.00;54973.53;2074503;28;20552;-63
2023/10/25 00:51:28;;;;;;;12.05;9.00;;;;;;;-145.87;100.00;54973.53;2082829;28;20057;-60
2023/10/25 00:52:29;;;;;;;10.48;8.35;;;;;;;-145.87;100.00;54973.53;2091382;28;20057;-61
2023/10/25 00:53:31;;;;;;;11.70;8.68;;;;;;;-145.87;100.00;54973.53;2090542;28;20052;-63
2023/10/25 00:54:32;;;;;;;12.48;9.95;;;;;;;-145.87;100.00;54973.53;2091292;28;20424;-61
2023/10/25 00:55:33;;;;;;;15.20;9.75;;;;;;;-145.87;100.00;54973.53;2091312;28;20036;-60
2023/10/25 00:56:35;;;;;;;11.73;8.98;;;;;;;-145.87;100.00;54973.53;2091325;28;20060;-65
2023/10/25 00:57:36;;;;;;;11.93;9.23;;;;;;;-145.87;100.00;54973.53;2090791;28;20040;-61
2023/10/25 00:58:38;;;;;;;11.80;8.98;;;;;;;-145.87;100.00;54973.53;2082677;28;20417;-64
2023/10/25 00:59:39;;;;;;;12.65;10.02;;;;;;;-145.87;100.00;54973.53;2090949;28;20041;-62
2023/10/25 01:00:40;;;;;;;12.38;10.30;;;;;;;-145.87;100.00;54973.53;2090972;28;20047;-63
2023/10/25 01:01:41;;;;;;;13.57;10.60;;;;;;;-145.87;100.00;54973.53;2097910;28;20045;-62
2023/10/25 01:02:42;;;;;;;12.75;10.30;;;;;;;-145.87;100.00;54973.53;2098206;28;20047;-63
2023/10/25 01:03:44;;;;;;;13.57;10.25;;;;;;;-145.87;100.00;54973.53;2090577;28;20056;-62
2023/10/25 01:04:45;;;;;;;12.30;10.02;;;;;;;-145.87;100.00;54973.53;2090294;28;20518;-63
2023/10/25 01:05:46;;;;;;;16.77;11.38;;;;;;;-145.87;100.00;54973.53;2090180;28;20060;-63
2023/10/25 01:06:47;;;;;;;17.25;11.52;;;;;;;-145.87;100.00;54973.53;2090801;28;20053;-60
2023/10/25 01:07:48;;;;;;;13.70;11.10;;;;;;;-145.87;100.00;54973.53;2090929;28;20044;-62
2023/10/25 01:08:50;;;;;;;15.18;11.45;;;;;;;-145.87;100.00;54973.53;2090279;28;20051;-60
2023/10/25 01:09:51;;;;;;;14.73;11.23;;;;;;;-145.87;100.00;54973.53;2081596;28;20053;-63
2023/10/25 01:10:52;;;;;;;16.10;11.80;;;;;;;-145.87;100.00;54973.53;2089876;28;20040;-61
2023/10/25 01:11:53;;;;;;;15.60;12.45;;;;;;;-145.87;100.00;54973.53;2089667;28;20056;-63
2023/10/25 01:12:55;;;;;;;14.77;10.70;;;;;;;-145.87;100.00;54973.53;2089864;28;20485;-62
2023/10/25 01:13:56;;;;;;;16.08;11.57;;;;;;;-145.87;100.00;54973.53;2090431;28;20041;-62
2023/10/25 01:14:57;;;;;;;15.95;11.95;;;;;;;-145.87;100.00;54973.53;2090438;28;20053;-62
2023/10/25 01:15:59;;;;;;;17.45;11.77;;;;;;;-145.87;100.00;54973.53;2090509;28;20041;-63
2023/10/25 01:17:00;;;;;;;12.65;9.50;;;;;;;-145.87;100.00;54973.53;2090328;28;20041;-62
2023/10/25 01:18:01;;;;;;;12.82;9.43;;;;;;;-145.87;100.00;54973.53;2090449;28;20068;-60
2023/10/25 01:19:02;;;;;;;14.13;8.68;;;;;;;-145.87;100.00;54973.53;2090005;28;20044;-61
2023/10/25 01:20:04;;;;;;;13.73;9.65;;;;;;;-145.87;100.00;54973.53;2073553;28;20046;-62
2023/10/25 01:21:05;;;;;;;15.30;10.57;;;;;;;-145.87;100.00;54973.53;2073396;28;20046;-62
2023/10/25 01:22:06;;;;;;;13.18;10.77;;;;;;;-145.87;100.00;54973.53;2081492;28;20049;-62
2023/10/25 01:23:07;;;;;;;12.70;10.80;;;;;;;-145.87;100.00;54973.53;2081080;28;20061;-62
2023/10/25 01:24:08;;;;;;;17.27;11.80;;;;;;;-145.87;100.00;54973.53;2089029;28;20532;-63
2023/10/25 01:25:10;;;;;;;14.65;11.10;;;;;;;-145.87;100.00;54973.53;2089911;28;20041;-63
2023/10/25 01:26:11;;;;;;;15.65;11.13;;;;;;;-145.87;100.00;54973.53;2089736;28;20048;-61
2023/10/25 01:27:12;;;;;;;15.10;11.68;;;;;;;-145.87;100.00;54973.53;2090132;28;20059;-61
2023/10/25 01:28:13;;;;;;;16.50;10.80;;;;;;;-145.87;100.00;54973.53;2090372;28;20048;-62
2023/10/25 01:29:14;;;;;;;15.32;11.85;;;;;;;-145.87;100.00;54973.53;2090469;28;20374;-62
2023/10/25 01:30:15;;;;;;;14.00;10.93;;;;;;;-145.87;100.00;54973.53;2090354;28;20056;-63
2023/10/25 01:31:16;;;;;;;13.35;10.90;;;;;;;-145.87;100.00;54973.53;2089799;28;20053;-62
2023/10/25 01:32:17;;;;;;;16.90;11.63;;;;;;;-145.87;100.00;54973.53;2089727;28;20059;-63
2023/10/25 01:33:18;;;;;;;14.43;11.07;;;;;;;-145.87;100.00;54973.53;2090424;28;20404;-62
2023/10/25 01:34:20;;;;;;;15.13;11.45;;;;;;;-145.87;100.00;54973.53;2090194;28;20056;-62
2023/10/25 01:35:21;;;;;;;16.67;11.43;;;;;;;-145.87;100.00;54973.53;2088708;28;20420;-63
2023/10/25 01:36:22;;;;;;;14.82;11.02;;;;;;;-145.87;100.00;54973.53;2090240;28;20056;-63
2023/10/25 01:37:23;;;;;;;16.45;11.25;;;;;;;-145.87;100.00;54973.53;2090248;28;20061;-63
2023/10/25 01:38:24;;;;;;;15.93;11.00;;;;;;;-145.87;100.00;54973.53;2090199;28;20045;-61
2023/10/25 01:39:25;;;;;;;17.30;11.77;;;;;;;-145.87;100.00;54973.53;2090300;28;20083;-61
2023/10/25 01:40:27;;;;;;;16.77;12.35;;;;;;;-145.87;100.00;54973.53;2089933;28;20520;-61
2023/10/25 01:41:28;;;;;;;18.60;12.38;;;;;;;-145.87;100.00;54973.53;2081551;28;20057;-63
2023/10/25 01:42:29;;;;;;;20.48;13.07;;;;;;;-145.87;100.00;54973.53;2089765;28;20044;-61
2023/10/25 01:43:30;;;;;;;15.70;11.10;;;;;;;-145.87;100.00;54973.53;2089903;28;20059;-61
2023/10/25 01:44:32;;;;;;;18.92;13.80;;;;;;;-145.87;100.00;54973.53;2090250;28;20040;-62
2023/10/25 01:45:33;;;;;;;20.40;12.95;;;;;;;-145.87;100.00;54973.53;2090093;28;20045;-62
2023/10/25 01:46:34;;;;;;;18.77;13.40;;;;;;;-145.87;100.00;54973.53;2089895;28;20068;-62
2023/10/25 01:47:37;;;;;;;17.98;13.27;;;;;;;-145.87;100.00;54973.53;2089301;28;20071;-62
2023/10/25 01:48:38;;;;;;;16.67;12.60;;;;;;;-145.87;100.00;54973.53;2089287;28;20049;-62
2023/10/25 01:49:39;;;;;;;15.50;11.48;;;;;;;-145.87;100.00;54973.53;2081264;28;20053;-63
2023/10/25 01:50:40;;;;;;;20.08;13.57;;;;;;;-145.87;100.00;54973.53;2089719;28;20048;-62
2023/10/25 01:51:41;;;;;;;18.13;12.52;;;;;;;-145.87;100.00;54973.53;2090240;28;20044;-62
2023/10/25 01:52:43;;;;;;;22.13;13.98;;;;;;;-145.87;100.00;54973.53;2090082;28;20503;-62
2023/10/25 01:53:44;;;;;;;20.50;13.98;;;;;;;-145.87;100.00;54973.53;2088955;28;20049;-62
2023/10/25 01:54:46;;;;;;;19.85;13.50;;;;;;;-145.87;100.00;54973.53;2089534;28;20048;-62
2023/10/25 01:55:48;;;;;;;18.83;12.60;;;;;;;-145.87;100.00;54973.53;2089213;28;20048;-62
2023/10/25 01:56:49;;;;;;;21.50;14.23;;;;;;;-145.87;100.00;54973.53;2081369;28;20049;-62
2023/10/25 01:57:51;;;;;;;19.73;13.23;;;;;;;-145.87;100.00;54973.53;2089722;28;20049;-61
2023/10/25 01:58:52;;;;;;;19.27;14.23;;;;;;;-145.87;100.00;54973.53;2081872;28;20060;-61
2023/10/25 01:59:53;;;;;;;17.92;13.88;;;;;;;-145.87;100.00;54973.53;2089302;28;20040;-60
2023/10/25 02:00:54;;;;;;;21.17;14.60;;;;;;;-145.87;100.00;54973.53;2084223;28;20500;-63
2023/10/25 02:01:55;;;;;;;20.55;15.68;;;;;;;-145.87;100.00;54973.53;2081366;28;20041;-62
2023/10/25 02:02:56;;;;;;;20.77;15.65;;;;;;;-145.87;100.00;54973.53;2081298;28;20045;-62
2023/10/25 02:03:57;;;;;;;21.30;14.93;;;;;;;-145.87;100.00;54973.53;2081219;28;20065;-61
2023/10/25 02:04:59;;;;;;;20.95;14.80;;;;;;;-145.87;100.00;54973.53;2081417;28;20060;-62
2023/10/25 02:06:10;;;;;;;23.13;15.43;;;;;;;-145.87;100.00;54973.53;2081511;28;20053;-62
2023/10/25 02:07:11;;;;;;;20.90;14.60;;;;;;;-145.87;100.00;54973.53;2082686;28;20096;-62
2023/10/25 02:08:12;;;;;;;18.85;14.52;;;;;;;-145.87;100.00;54973.53;2089194;28;20053;-62
2023/10/25 02:09:13;;;;;;;21.05;15.55;;;;;;;-145.87;100.00;54973.53;2090224;28;20060;-62
2023/10/25 02:10:15;;;;;;;22.35;15.35;;;;;;;-145.87;100.00;54973.53;2089536;28;20059;-63
2023/10/25 02:11:16;;;;;;;21.80;15.48;;;;;;;-145.87;100.00;54973.53;2089930;28;20049;-63
2023/10/25 02:12:17;;;;;;;21.02;15.35;;;;;;;-145.87;100.00;54973.53;2090149;28;20119;-63
2023/10/25 02:13:18;;;;;;;23.90;15.80;;;;;;;-145.87;100.00;54973.53;2089527;28;20052;-63
2023/10/25 02:14:21;;;;;;;23.67;15.35;;;;;;;-145.87;100.00;54973.53;2089162;28;20420;-62
2023/10/25 02:15:22;;;;;;;23.48;16.10;;;;;;;-145.87;100.00;54973.53;2089246;28;20115;-61
2023/10/25 02:16:23;;;;;;;21.00;13.43;;;;;;;-145.87;100.00;54973.53;2088822;28;20065;-62
2023/10/25 02:17:24;;;;;;;22.40;14.18;;;;;;;-145.87;100.00;54973.53;2089460;28;20051;-62
2023/10/25 02:18:25;;;;;;;24.05;15.70;;;;;;;-145.87;100.00;54973.53;2089304;28;20061;-61
2023/10/25 02:19:26;;;;;;;22.20;15.60;;;;;;;-145.87;100.00;54973.53;2089737;28;20075;-61
2023/10/25 02:20:29;;;;;;;22.05;15.00;;;;;;;-145.87;100.00;54973.53;2089554;28;20501;-60
2023/10/25 02:21:34;;;;;;;23.05;15.90;;;;;;;-145.87;100.00;54973.53;2091012;28;20054;-61
2023/10/25 02:22:35;;;;;;;21.20;15.77;;;;;;;-145.87;100.00;54973.53;2083424;28;20033;-63
2023/10/25 02:23:38;;;;;;;25.42;15.57;;;;;;;-145.87;100.00;54973.53;2090771;28;20539;-63
2023/10/25 02:24:39;;;;;;;24.65;15.85;;;;;;;-145.87;100.00;54973.53;2091459;28;20420;-63
2023/10/25 02:25:40;;;;;;;25.30;15.73;;;;;;;-145.87;100.00;54973.53;2090880;28;20056;-63
2023/10/25 02:26:42;;;;;;;24.27;16.60;;;;;;;-145.87;100.00;54973.53;2091709;28;20056;-63
2023/10/25 02:27:43;;;;;;;24.75;16.52;;;;;;;-145.87;100.00;54973.53;2090988;28;20044;-62
2023/10/25 02:28:44;;;;;;;25.98;16.77;;;;;;;-145.87;100.00;54973.53;2091363;28;20041;-63
2023/10/25 02:29:46;;;;;;;23.83;15.98;;;;;;;-145.87;100.00;54973.53;2090618;28;20144;-63
2023/10/25 02:30:47;;;;;;;20.77;15.30;;;;;;;-145.87;100.00;54973.53;2091085;28;20049;-63
2023/10/25 02:31:48;;;;;;;23.83;15.38;;;;;;;-145.87;100.00;54973.53;2091660;28;20532;-62
2023/10/25 02:32:50;;;;;;;23.90;15.05;;;;;;;-145.87;100.00;54973.53;2091663;28;20052;-63
2023/10/25 02:33:51;;;;;;;22.17;15.55;;;;;;;-145.87;100.00;54973.53;2090597;28;20456;-63
2023/10/25 02:34:52;;;;;;;27.50;17.27;;;;;;;-145.87;100.00;54973.53;2082361;28;20053;-61
2023/10/25 02:35:53;;;;;;;23.80;16.02;;;;;;;-145.87;100.00;54973.53;2090707;28;20053;-61
2023/10/25 02:36:55;;;;;;;25.70;16.33;;;;;;;-145.87;100.00;54973.53;2091571;28;20067;-62
2023/10/25 02:37:56;;;;;;;21.88;15.82;;;;;;;-145.87;100.00;54973.53;2091781;28;20049;-63
2023/10/25 02:38:59;;;;;;;22.98;15.68;;;;;;;-145.87;100.00;54973.53;2090822;28;20057;-62
2023/10/25 02:40:00;;;;;;;25.67;16.73;;;;;;;-145.87;100.00;54973.53;2090625;28;20057;-62
2023/10/25 02:41:01;;;;;;;21.70;14.50;;;;;;;-145.87;100.00;54973.53;2091606;28;20532;-63
2023/10/25 02:42:03;;;;;;;19.98;14.45;;;;;;;-145.87;100.00;54973.53;2091445;28;20049;-63
2023/10/25 02:43:04;;;;;;;22.70;15.63;;;;;;;-145.87;100.00;54973.53;2091678;28;20056;-63
2023/10/25 02:44:05;;;;;;;21.77;16.20;;;;;;;-145.87;100.00;54973.53;2091092;28;20049;-63
2023/10/25 02:45:07;;;;;;;23.40;15.55;;;;;;;-145.87;100.00;54973.53;2091058;28;20052;-63
2023/10/25 02:46:09;;;;;;;24.73;16.73;;;;;;;-145.87;100.00;54973.53;2091668;28;20067;-63
2023/10/25 02:47:10;;;;;;;21.95;14.93;;;;;;;-145.87;100.00;54973.53;2090986;28;20048;-62
2023/10/25 02:48:14;;;;;;;24.65;16.13;;;;;;;-145.87;100.00;54973.53;2090944;28;20060;-63
2023/10/25 02:49:15;;;;;;;26.17;16.23;;;;;;;-145.87;100.00;54973.53;2091422;28;20056;-63
2023/10/25 02:50:16;;;;;;;24.05;14.77;;;;;;;-145.87;100.00;54973.53;2091511;28;20057;-64
2023/10/25 02:51:17;;;;;;;23.88;14.55;;;;;;;-145.87;100.00;54973.53;2091547;28;20512;-63
2023/10/25 02:52:18;;;;;;;25.33;14.57;;;;;;;-145.87;100.00;54973.53;2091728;28;20068;-63
2023/10/25 02:53:19;;;;;;;24.75;15.30;;;;;;;-145.87;100.00;54973.53;2091422;28;20057;-63
2023/10/25 02:54:20;;;;;;;26.23;16.42;;;;;;;-145.87;100.00;54973.53;2091271;28;20055;-61
2023/10/25 02:55:22;;;;;;;27.15;16.55;;;;;;;-145.87;100.00;54973.53;2091864;28;20409;-62
2023/10/25 02:56:23;;;;;;;27.75;17.58;;;;;;;-145.87;100.00;54973.53;2091625;28;20059;-63
2023/10/25 02:57:24;;;;;;;28.55;17.52;;;;;;;-145.87;100.00;54973.53;2091402;28;20041;-62
2023/10/25 02:58:25;;;;;;;24.48;16.25;;;;;;;-145.87;100.00;54973.53;2091786;28;20493;-63
2023/10/25 02:59:26;;;;;;;28.60;18.90;;;;;;;-145.87;100.00;54973.53;2091606;28;20040;-62
2023/10/25 03:00:28;;;;;;;27.27;17.50;;;;;;;-145.87;100.00;54973.53;2091465;28;20056;-63
2023/10/25 03:01:29;;;;;;;27.52;18.30;;;;;;;-145.87;100.00;54973.53;2091348;28;20418;-63
2023/10/25 03:02:31;;;;;;;27.30;17.45;;;;;;;-145.87;100.00;54973.53;2090727;28;20045;-63
2023/10/25 03:03:33;;;;;;;26.25;17.38;;;;;;;-145.87;100.00;54973.53;2091155;28;20040;-63
2023/10/25 03:04:34;;;;;;;25.98;16.73;;;;;;;-145.87;100.00;54973.53;2091476;28;20056;-63
2023/10/25 03:05:35;;;;;;;27.27;17.42;;;;;;;-145.87;100.00;54973.53;2091254;28;20048;-63
2023/10/25 03:06:36;;;;;;;28.08;17.00;;;;;;;-145.87;100.00;54973.53;2091607;28;20393;-63
2023/10/25 03:07:37;;;;;;;24.50;16.13;;;;;;;-145.87;100.00;54973.53;2090895;28;20139;-63
2023/10/25 03:08:38;;;;;;;25.23;16.52;;;;;;;-145.87;100.00;54973.53;2082545;28;20045;-64
2023/10/25 03:09:39;;;;;;;28.00;17.25;;;;;;;-145.87;100.00;54973.53;2082656;28;20133;-63
2023/10/25 03:10:40;;;;;;;24.83;16.13;;;;;;;-145.87;100.00;54973.53;2082416;28;20052;-63
2023/10/25 03:11:41;;;;;;;27.73;17.40;;;;;;;-145.87;100.00;54973.53;2090651;28;20036;-62
2023/10/25 03:12:43;;;;;;;27.65;16.17;;;;;;;-145.87;100.00;54973.53;2091558;28;20492;-63
2023/10/25 03:13:44;;;;;;;34.35;17.30;;;;;;;-145.87;100.00;54973.53;2091265;28;20037;-64
2023/10/25 03:14:45;;;;;;;29.90;17.90;;;;;;;-145.87;100.00;54973.53;2091286;28;20052;-63
2023/10/25 03:15:46;;;;;;;29.30;16.92;;;;;;;-145.87;100.00;54973.53;2091619;28;20040;-63
2023/10/25 03:16:49;;;;;;;28.55;17.55;;;;;;;-145.87;100.00;54973.53;2091721;28;20060;-62
2023/10/25 03:17:50;;;;;;;28.25;17.27;;;;;;;-145.87;100.00;54973.53;2091923;28;20049;-62
2023/10/25 03:18:51;;;;;;;35.60;17.38;;;;;;;-145.87;100.00;54973.53;2091737;28;20057;-63
2023/10/25 03:19:53;;;;;;;31.23;18.85;;;;;;;-145.87;100.00;54973.53;2091078;28;20053;-64
2023/10/25 03:20:54;;;;;;;29.40;18.02;;;;;;;-145.87;100.00;54973.53;2090937;28;20048;-64
2023/10/25 03:21:56;;;;;;;34.20;19.50;;;;;;;-145.87;100.00;54973.53;2090682;28;20398;-63
2023/10/25 03:22:57;;;;;;;28.98;18.40;;;;;;;-145.87;100.00;54973.53;2081989;28;20057;-64
2023/10/25 03:23:58;;;;;;;34.17;18.35;;;;;;;-145.87;100.00;54973.53;2090180;28;20068;-66
2023/10/25 03:24:59;;;;;;;32.03;18.38;;;;;;;-145.87;100.00;54973.53;2091619;28;20045;-63
2023/10/25 03:26:04;;;;;;;32.78;17.75;;;;;;;-145.87;100.00;54973.53;2091256;28;20538;-63
2023/10/25 03:27:07;;;;;;;34.03;18.08;;;;;;;-145.87;100.00;54973.53;2091176;28;20434;-64
2023/10/25 03:28:08;;;;;;;32.30;19.02;;;;;;;-145.87;100.00;54973.53;2091425;28;20064;-63
2023/10/25 03:29:09;;;;;;;32.67;17.25;;;;;;;-145.87;100.00;54973.53;2091260;28;20053;-63
2023/10/25 03:30:10;;;;;;;33.78;18.60;;;;;;;-145.87;100.00;54973.53;2091140;28;20064;-63
2023/10/25 03:31:11;;;;;;;31.48;18.58;;;;;;;-145.87;100.00;54973.53;2091156;28;20059;-63
2023/10/25 03:32:13;;;;;;;31.17;18.95;;;;;;;-145.87;100.00;54973.53;2091060;28;20053;-64
2023/10/25 03:33:14;;;;;;;32.70;18.35;;;;;;;-145.87;100.00;54973.53;2090537;28;20049;-64
2023/10/25 03:34:18;;;;;;;28.60;18.45;;;;;;;-145.87;100.00;54973.53;2090697;28;20098;-64
2023/10/25 03:35:19;;;;;;;36.47;18.67;;;;;;;-145.87;100.00;54973.53;2091039;28;20045;-63
2023/10/25 03:36:20;;;;;;;30.98;18.70;;;;;;;-145.87;100.00;54973.53;2091075;28;20064;-63
2023/10/25 03:37:22;;;;;;;30.90;19.42;;;;;;;-145.87;100.00;54973.53;2091092;28;20097;-64
2023/10/25 03:38:23;;;;;;;30.77;18.83;;;;;;;-145.87;100.00;54973.53;2091276;28;20392;-62
2023/10/25 03:39:24;;;;;;;31.67;20.00;;;;;;;-145.87;100.00;54973.53;2091028;28;20037;-63
2023/10/25 03:40:25;;;;;;;33.38;19.58;;;;;;;-145.87;100.00;54973.53;2090775;28;20049;-64
2023/10/25 03:41:26;;;;;;;30.98;19.42;;;;;;;-145.87;100.00;54973.53;2090831;28;20044;-62
2023/10/25 03:42:27;;;;;;;31.38;19.88;;;;;;;-145.87;100.00;54973.53;2090927;28;20040;-62
2023/10/25 03:43:28;;;;;;;35.55;21.17;;;;;;;-145.87;100.00;54973.53;2090708;28;20515;-64
2023/10/25 03:44:29;;;;;;;31.65;19.27;;;;;;;-145.87;100.00;54973.53;2090150;28;20052;-63
2023/10/25 03:45:30;;;;;;;34.92;21.70;;;;;;;-145.87;100.00;54973.53;2091044;28;20044;-63
2023/10/25 03:46:33;;;;;;;33.65;18.95;;;;;;;-145.87;100.00;54973.53;2090857;28;20476;-64
2023/10/25 03:47:39;;;;;;;37.20;22.67;;;;;;;-145.87;100.00;54973.53;2091035;28;20056;-64
2023/10/25 03:48:40;;;;;;;33.28;21.33;;;;;;;-145.87;100.00;54973.53;2091237;28;20492;-64
2023/10/25 03:49:42;;;;;;;38.00;23.05;;;;;;;-145.87;100.00;54973.53;2091327;28;20047;-63
2023/10/25 03:50:43;;;;;;;35.83;20.65;;;;;;;-145.87;100.00;54973.53;2091065;28;20045;-63
2023/10/25 03:51:44;;;;;;;37.10;21.95;;;;;;;-145.87;100.00;54973.53;2091088;28;20051;-63
2023/10/25 03:52:45;;;;;;;39.38;22.08;;;;;;;-145.87;100.00;54973.53;2090922;28;20041;-62
2023/10/25 03:53:47;;;;;;;32.55;18.10;;;;;;;-145.87;100.00;54973.53;2091296;28;20064;-63
2023/10/25 03:54:48;;;;;;;38.55;23.33;;;;;;;-145.87;100.00;54973.53;2090485;28;20044;-63
2023/10/25 03:55:55;;;;;;;38.40;22.80;;;;;;;-145.87;100.00;54973.53;2090374;28;20059;-63
2023/10/25 03:56:56;;;;;;;33.38;21.63;;;;;;;-145.87;100.00;54973.53;2091138;28;20040;-63
2023/10/25 03:57:57;;;;;;;34.50;21.15;;;;;;;-145.87;100.00;54973.53;2090485;28;20540;-63
2023/10/25 03:58:59;;;;;;;37.03;22.75;;;;;;;-145.87;100.00;54973.53;2090694;28;20045;-62
2023/10/25 04:00:00;;;;;;;39.83;24.20;;;;;;;-145.87;100.00;54973.53;2090779;28;20052;-63
2023/10/25 04:01:02;;;;;;;38.70;21.83;;;;;;;-145.87;100.00;54973.53;2091031;28;20045;-63
2023/10/25 04:02:03;;;;;;;36.05;21.33;;;;;;;-145.87;100.00;54973.53;2090877;28;20059;-63
2023/10/25 04:03:05;;;;;;;37.97;22.75;;;;;;;-145.87;100.00;54973.53;2091036;28;20477;-62
2023/10/25 04:04:06;;;;;;;35.08;22.63;;;;;;;-145.87;100.00;54973.53;2091036;28;20076;-62
2023/10/25 04:05:08;;;;;;;36.42;22.17;;;;;;;-145.87;100.00;54973.53;2098749;28;20122;-62
2023/10/25 04:06:09;;;;;;;36.70;21.63;;;;;;;-145.87;100.00;54973.53;2098796;28;20052;-62
2023/10/25 04:07:12;;;;;;;31.45;19.67;;;;;;;-145.87;100.00;54973.53;2091086;28;20040;-62
2023/10/25 04:08:14;;;;;;;31.63;19.98;;;;;;;-145.87;100.00;54973.53;2090855;28;20060;-64
2023/10/25 04:09:15;;;;;;;35.00;22.40;;;;;;;-145.87;100.00;54973.53;2090801;28;20071;-63
2023/10/25 04:10:16;;;;;;;37.55;22.30;;;;;;;-145.87;100.00;54973.53;2090992;28;20489;-64
2023/10/25 04:11:17;;;;;;;35.05;22.02;;;;;;;-145.87;100.00;54973.53;2090868;28;20055;-64
2023/10/25 04:12:18;;;;;;;33.20;21.00;;;;;;;-145.87;100.00;54973.53;2090892;28;20053;-62
2023/10/25 04:13:19;;;;;;;36.58;21.85;;;;;;;-145.87;100.00;54973.53;2090965;28;20064;-64
2023/10/25 04:14:20;;;;;;;53.33;31.08;;;;;;;-145.87;100.00;54973.53;2091132;28;20052;-63
2023/10/25 04:15:22;;;;;;;42.30;26.48;;;;;;;-145.87;100.00;54973.53;2090769;28;20045;-62
2023/10/25 04:16:23;;;;;;;34.80;21.80;;;;;;;-145.87;100.00;54973.53;2090942;28;20037;-62
2023/10/25 04:17:24;;;;;;;33.28;21.83;;;;;;;-145.87;100.00;54973.53;2090939;28;20037;-62
2023/10/25 04:18:27;;;;;;;32.28;21.58;;;;;;;-145.87;100.00;54973.53;2090906;28;20044;-62
2023/10/25 04:19:28;;;;;;;27.40;18.42;;;;;;;-145.87;100.00;54973.53;2090736;28;20040;-63
2023/10/25 04:20:32;;;;;;;28.17;19.23;;;;;;;-145.87;100.00;54973.53;2090797;28;20041;-63
2023/10/25 04:21:33;;;;;;;27.73;19.00;;;;;;;-145.87;100.00;54973.53;2090822;28;20041;-63
2023/10/25 04:22:34;;;;;;;32.08;20.08;;;;;;;-145.87;100.00;54973.53;2090630;28;20049;-64
2023/10/25 04:23:35;;;;;;;29.35;18.25;;;;;;;-145.87;100.00;54973.53;2090872;28;20052;-62
2023/10/25 04:24:36;;;;;;;29.63;19.20;;;;;;;-145.87;100.00;54973.53;2090784;28;20048;-63
2023/10/25 04:25:38;;;;;;;32.95;21.63;;;;;;;-145.87;100.00;54973.53;2090872;28;20045;-64
2023/10/25 04:26:39;;;;;;;31.13;22.05;;;;;;;-145.87;100.00;54973.53;2090691;28;20408;-64
2023/10/25 04:27:40;;;;;;;31.88;21.13;;;;;;;-145.87;100.00;54973.53;2090957;28;20052;-63
2023/10/25 04:28:42;;;;;;;33.55;21.30;;;;;;;-145.87;100.00;54973.53;2090758;28;20048;-63
2023/10/25 04:29:43;;;;;;;29.85;20.33;;;;;;;-145.87;100.00;54973.53;2090666;28;20393;-63
2023/10/25 04:30:45;;;;;;;30.63;20.70;;;;;;;-145.87;100.00;54973.53;2090790;28;20048;-63
2023/10/25 04:31:46;;;;;;;29.98;20.10;;;;;;;-145.87;100.00;54973.53;2090672;28;20059;-63
2023/10/25 04:32:47;;;;;;;34.70;20.10;;;;;;;-145.87;100.00;54973.53;2090411;28;20056;-63
2023/10/25 04:33:48;;;;;;;30.90;21.67;;;;;;;-145.87;100.00;54973.53;2091026;28;20056;-63